createdAt,value
2022-10-25T12:21:46.629Z,98844.31
2022-10-25T12:24:23.943Z,98847.00
2022-10-25T12:26:58.218Z,98848.50
2022-10-25T12:29:37.653Z,98852.47
2022-10-25T12:32:18.368Z,98853.53
2022-10-25T12:34:55.116Z,98868.56
2022-10-25T12:37:39.659Z,98866.94
2022-10-25T12:40:20.909Z,98869.16
2022-10-25T12:42:57.564Z,98868.34
2022-10-25T12:45:44.967Z,98873.25
2022-10-25T12:48:34.217Z,98880.13
2022-10-25T12:51:23.980Z,98878.56
2022-10-25T12:54:28.396Z,98882.19
2022-10-25T12:57:12.772Z,98885.22
2022-10-25T13:00:02.057Z,98894.16
2022-10-25T13:03:20.280Z,98889.28
2022-10-25T13:06:23.389Z,98896.38
2022-10-25T13:08:56.918Z,98897.84
2022-10-25T13:11:40.768Z,98898.78
2022-10-25T13:14:30.026Z,98898.28
2022-10-25T13:17:53.174Z,98904.78
2022-10-25T13:20:50.180Z,98903.81
2022-10-25T13:24:01.732Z,98898.44
2022-10-25T13:26:58.090Z,98905.25
2022-10-25T13:30:03.203Z,98912.75
2022-10-25T13:32:37.263Z,98916.13
2022-10-25T13:35:57.446Z,98920.88
2022-10-25T13:38:36.565Z,98918.63
2022-10-25T13:41:18.376Z,98918.72
2022-10-25T13:44:04.441Z,98932.38
2022-10-25T13:46:40.991Z,98930.16
2022-10-25T13:49:39.619Z,98927.47
2022-10-25T13:52:26.811Z,98933.69
2022-10-25T13:55:00.154Z,98934.38
2022-10-25T13:57:53.574Z,98936.47
2022-10-25T14:00:37.275Z,98934.28
2022-10-25T14:03:49.936Z,98950.84
2022-10-25T14:06:31.939Z,98956.91
2022-10-25T14:09:23.477Z,98961.47
2022-10-25T14:11:58.676Z,98971.84
2022-10-25T14:14:33.161Z,98969.34
2022-10-25T14:17:18.501Z,98981.75
2022-10-25T14:19:56.280Z,98976.53
2022-10-25T14:22:34.568Z,98982.69
2022-10-25T14:25:10.972Z,98982.75
2022-10-25T14:27:43.201Z,98976.00
2022-10-25T14:30:34.928Z,98986.31
2022-10-25T14:33:23.763Z,98987.97
2022-10-25T14:35:59.973Z,98994.97
2022-10-25T14:38:32.770Z,98987.66
2022-10-25T14:41:08.126Z,98996.09
2022-10-25T14:43:42.185Z,98999.34
2022-10-25T14:46:18.928Z,99001.50
2022-10-25T14:48:56.507Z,99004.72
2022-10-25T14:51:32.510Z,99010.34
2022-10-25T14:54:07.860Z,99016.56
2022-10-25T14:56:44.563Z,99017.78
2022-10-25T14:59:27.979Z,99012.06
2022-10-25T15:02:03.638Z,99022.44
2022-10-25T15:04:42.330Z,99020.53
2022-10-25T15:07:25.493Z,99028.34
2022-10-25T15:09:58.993Z,99023.63
2022-10-25T15:12:33.370Z,99034.59
2022-10-25T15:15:35.806Z,99034.81
2022-10-25T15:18:08.470Z,99040.09
2022-10-25T15:20:42.743Z,99037.59
2022-10-25T15:23:20.093Z,99042.06
2022-10-25T15:25:52.333Z,99038.41
2022-10-25T15:28:24.709Z,99046.53
2022-10-25T15:31:09.873Z,99044.84
2022-10-25T15:33:44.294Z,99046.28
2022-10-25T15:36:25.955Z,99050.63
2022-10-25T15:39:12.748Z,99060.25
2022-10-25T15:41:48.194Z,99056.75
2022-10-25T15:44:21.070Z,99055.78
2022-10-25T15:46:54.059Z,99059.94
2022-10-25T15:49:26.690Z,99062.59
2022-10-25T15:52:03.115Z,99063.28
2022-10-25T15:54:36.146Z,99076.16
2022-10-25T15:57:08.475Z,99069.78
2022-10-25T15:59:41.231Z,99076.50
2022-10-25T16:02:22.197Z,99072.34
2022-10-25T16:04:55.731Z,99081.00
2022-10-25T16:07:29.951Z,99074.84
2022-10-25T16:10:02.502Z,99075.69
2022-10-25T16:12:36.540Z,99079.31
2022-10-25T16:15:10.841Z,99089.72
2022-10-25T16:17:42.955Z,99086.56
2022-10-25T16:20:20.524Z,99086.28
2022-10-25T16:22:55.529Z,99088.66
2022-10-25T16:25:32.836Z,99095.47
2022-10-25T16:28:05.919Z,99093.34
2022-10-25T16:30:41.708Z,99099.22
2022-10-25T16:33:15.520Z,99094.63
2022-10-25T16:35:47.830Z,99101.72
2022-10-25T16:38:21.369Z,99098.81
2022-10-25T16:40:54.018Z,99098.50
2022-10-25T16:43:26.214Z,99104.50
2022-10-25T16:45:58.756Z,99096.97
2022-10-25T16:48:31.178Z,99093.06
2022-10-25T16:51:03.656Z,99098.22
2022-10-25T16:53:37.458Z,99101.16
2022-10-25T16:56:12.838Z,99103.94
2022-10-25T16:58:45.229Z,99105.72
2022-10-25T17:01:23.266Z,99109.91
2022-10-25T17:03:56.118Z,99104.88
2022-10-25T17:06:40.804Z,99109.88
2022-10-25T17:09:15.363Z,99104.03
2022-10-25T17:11:48.169Z,99112.66
2022-10-25T17:14:20.517Z,99112.81
2022-10-25T17:16:52.830Z,99105.72
2022-10-25T17:19:26.308Z,99108.81
2022-10-25T17:21:59.508Z,99108.50
2022-10-25T17:24:37.420Z,99113.94
2022-10-25T17:27:10.278Z,99114.91
2022-10-25T17:29:42.652Z,99114.22
2022-10-25T17:32:15.207Z,99117.56
2022-10-25T17:34:47.474Z,99115.47
2022-10-25T17:37:19.367Z,99113.50
2022-10-25T17:39:53.476Z,99115.91
2022-10-25T17:42:26.392Z,99109.31
2022-10-25T17:44:58.383Z,99112.91
2022-10-25T17:47:31.311Z,99109.31
2022-10-25T17:50:03.467Z,99112.91
2022-10-25T17:52:35.857Z,99112.19
2022-10-25T17:55:11.530Z,99101.72
2022-10-25T17:57:45.427Z,99109.91
2022-10-25T18:00:19.269Z,99106.41
2022-10-25T18:02:53.043Z,99108.63
2022-10-25T18:05:25.842Z,99108.38
2022-10-25T18:07:58.323Z,99106.50
